West Point, PA (19486)

4:43 AM EST on December 03, 2016 (GMT -0500)
North Wales, Pa | | Change Station

Elev 374 ft 40.22 °N, 75.28 °W | Updated 12 seconds ago

Overcast
Overcast
41.5 °F
Feels Like 42 °F
N
1.6
Wind Variable Wind from WSW
Gusts 6.0 mph

Today
High -- | Low -- °F
--% Chance of Precip.
Yesterday
High -- | Low -- °F
Precip. -- in
Pressure 30.00 in
Visibility 10.0 miles
Clouds Scattered Clouds 3500 ft
Mostly Cloudy 4400 ft
Overcast 4900 ft
Windchill 42 °F
Dew Point 32 °F
Humidity 68%
Rainfall 0.00 in
Snow Depth Not available.
7:06 AM 4:35 PM
Waxing Crescent, 14% visible
METAR KLOM 030935Z AUTO 28007G14KT 260V320 10SM SCT035 BKN044 OVC049 05/00 A3000 RMK AO1
Pressure 30.00 in
Visibility 10.0 miles
Clouds Scattered Clouds 3500 ft
Mostly Cloudy 4400 ft
Overcast 4900 ft
Windchill 42 °F
Dew Point 32 °F
Humidity 68%
Rainfall 0.00 in
Snow Depth Not available.
7:06 AM 4:35 PM
Waxing Crescent, 14% visible
METAR KLOM 030935Z AUTO 28007G14KT 260V320 10SM SCT035 BKN044 OVC049 05/00 A3000 RMK AO1

10-Day Weather Forecast

Almanac

Astronomy

Dec. 03, 2016 Rise Set
Actual Time
Civil Twilight
Nautical Twilight
Astronomical Twilight
Moon
Length of Visible Light
Length of Day
Tomorrow will be .
, % of the Moon is Illuminated

Today's Extremes

State Highs State Lows

Community

WunderPhotos

Upload Photos

1,955,434 photos uploaded!

WunderBlog® & News

Nearby

Air Quality

  Air Quality AQ Index Pollutant
Not available.

Snow Depth

Station Depth Elevation

Earthquake Activity

City Distance Mag. Time & Date
Minimum magnitude displayed is 2.5.

Coastal Water Temperatures

Place Temperature

Stations

Nearby Weather Stations

Station Location Temp. Windchill Dew Point Humidity Wind Precip. Elev Updated Type
                   

Watches & Warnings

There are currently no watches in effect.